sensor_id;sensor_type;location;lat;lon;timestamp;temperature;humidity
50738;DHT22;36703;48.154;17.126;2023-02-01T00:01:42;8.90;51.20
50738;DHT22;36703;48.154;17.126;2023-02-01T00:05:43;8.90;50.60
50738;DHT22;36703;48.154;17.126;2023-02-01T00:09:44;8.80;50.70
50738;DHT22;36703;48.154;17.126;2023-02-01T00:13:46;8.90;50.70
50738;DHT22;36703;48.154;17.126;2023-02-01T00:17:48;8.80;50.70
50738;DHT22;36703;48.154;17.126;2023-02-01T00:21:49;8.80;50.70
50738;DHT22;36703;48.154;17.126;2023-02-01T00:25:51;8.80;50.80
50738;DHT22;36703;48.154;17.126;2023-02-01T00:29:54;8.80;50.90
50738;DHT22;36703;48.154;17.126;2023-02-01T00:33:56;8.80;50.90
50738;DHT22;36703;48.154;17.126;2023-02-01T00:37:58;8.80;51.00
50738;DHT22;36703;48.154;17.126;2023-02-01T00:42:00;8.80;51.00
50738;DHT22;36703;48.154;17.126;2023-02-01T00:46:03;8.80;51.00
50738;DHT22;36703;48.154;17.126;2023-02-01T00:50:05;8.80;51.00
50738;DHT22;36703;48.154;17.126;2023-02-01T00:54:06;8.80;51.00
50738;DHT22;36703;48.154;17.126;2023-02-01T00:58:08;8.80;51.00
50738;DHT22;36703;48.154;17.126;2023-02-01T01:02:10;8.80;51.00
50738;DHT22;36703;48.154;17.126;2023-02-01T01:06:15;8.80;51.00
50738;DHT22;36703;48.154;17.126;2023-02-01T01:10:18;9.10;51.20
50738;DHT22;36703;48.154;17.126;2023-02-01T01:14:19;8.80;51.00
50738;DHT22;36703;48.154;17.126;2023-02-01T01:18:21;8.90;51.10
50738;DHT22;36703;48.154;17.126;2023-02-01T01:22:22;8.90;50.90
50738;DHT22;36703;48.154;17.126;2023-02-01T01:26:25;8.90;50.90
50738;DHT22;36703;48.154;17.126;2023-02-01T01:30:28;8.90;50.90
50738;DHT22;36703;48.154;17.126;2023-02-01T01:34:29;8.90;50.80
50738;DHT22;36703;48.154;17.126;2023-02-01T01:38:31;8.90;50.90
50738;DHT22;36703;48.154;17.126;2023-02-01T01:42:38;8.90;50.80
50738;DHT22;36703;48.154;17.126;2023-02-01T01:46:43;8.90;50.90
50738;DHT22;36703;48.154;17.126;2023-02-01T01:50:46;8.90;51.00
50738;DHT22;36703;48.154;17.126;2023-02-01T01:54:59;8.90;51.10
50738;DHT22;36703;48.154;17.126;2023-02-01T01:59:02;8.90;51.00
50738;DHT22;36703;48.154;17.126;2023-02-01T02:03:13;8.90;51.00
50738;DHT22;36703;48.154;17.126;2023-02-01T02:07:23;8.90;51.10
50738;DHT22;36703;48.154;17.126;2023-02-01T02:11:28;8.90;51.10
50738;DHT22;36703;48.154;17.126;2023-02-01T02:15:29;8.90;51.10
50738;DHT22;36703;48.154;17.126;2023-02-01T02:23:57;8.90;51.20
50738;DHT22;36703;48.154;17.126;2023-02-01T02:28:35;8.90;51.70
50738;DHT22;36703;48.154;17.126;2023-02-01T02:37:40;9.00;51.20
50738;DHT22;36703;48.154;17.126;2023-02-01T02:51:31;8.90;51.00
50738;DHT22;36703;48.154;17.126;2023-02-01T02:55:56;8.90;51.10
50738;DHT22;36703;48.154;17.126;2023-02-01T03:00:23;8.90;51.00
50738;DHT22;36703;48.154;17.126;2023-02-01T03:04:52;8.90;51.10
50738;DHT22;36703;48.154;17.126;2023-02-01T03:08:58;8.90;51.20
50738;DHT22;36703;48.154;17.126;2023-02-01T03:13:13;8.90;51.10
50738;DHT22;36703;48.154;17.126;2023-02-01T03:17:39;8.90;51.20
50738;DHT22;36703;48.154;17.126;2023-02-01T03:21:58;8.90;51.20
50738;DHT22;36703;48.154;17.126;2023-02-01T03:26:04;8.90;51.20
50738;DHT22;36703;48.154;17.126;2023-02-01T03:30:20;8.90;51.20
50738;DHT22;36703;48.154;17.126;2023-02-01T03:34:23;8.90;51.20
50738;DHT22;36703;48.154;17.126;2023-02-01T03:38:40;8.90;51.20
50738;DHT22;36703;48.154;17.126;2023-02-01T03:42:54;8.90;51.30
50738;DHT22;36703;48.154;17.126;2023-02-01T03:47:02;8.90;51.30
50738;DHT22;36703;48.154;17.126;2023-02-01T03:51:09;8.90;51.30
50738;DHT22;36703;48.154;17.126;2023-02-01T03:55:15;8.90;51.30
50738;DHT22;36703;48.154;17.126;2023-02-01T03:59:21;8.90;51.20
50738;DHT22;36703;48.154;17.126;2023-02-01T04:03:24;9.00;51.20
50738;DHT22;36703;48.154;17.126;2023-02-01T04:07:26;9.00;51.10
50738;DHT22;36703;48.154;17.126;2023-02-01T04:11:28;9.00;51.10
50738;DHT22;36703;48.154;17.126;2023-02-01T04:15:30;9.00;51.00
50738;DHT22;36703;48.154;17.126;2023-02-01T04:19:31;9.00;50.90
50738;DHT22;36703;48.154;17.126;2023-02-01T04:23:33;9.00;50.70
50738;DHT22;36703;48.154;17.126;2023-02-01T04:27:35;9.10;50.70
50738;DHT22;36703;48.154;17.126;2023-02-01T04:31:36;9.10;50.50
50738;DHT22;36703;48.154;17.126;2023-02-01T04:35:38;9.10;50.30
50738;DHT22;36703;48.154;17.126;2023-02-01T04:39:39;9.10;50.20
50738;DHT22;36703;48.154;17.126;2023-02-01T04:43:41;9.10;50.10
50738;DHT22;36703;48.154;17.126;2023-02-01T04:47:42;9.10;50.00
50738;DHT22;36703;48.154;17.126;2023-02-01T04:51:44;9.10;49.90
50738;DHT22;36703;48.154;17.126;2023-02-01T04:55:48;9.20;49.90
50738;DHT22;36703;48.154;17.126;2023-02-01T04:59:51;9.10;49.70
50738;DHT22;36703;48.154;17.126;2023-02-01T05:03:52;9.20;49.60
50738;DHT22;36703;48.154;17.126;2023-02-01T05:07:54;9.20;49.60
50738;DHT22;36703;48.154;17.126;2023-02-01T05:11:55;9.20;49.40
50738;DHT22;36703;48.154;17.126;2023-02-01T05:16:16;9.20;49.40
50738;DHT22;36703;48.154;17.126;2023-02-01T05:20:17;9.20;49.40
50738;DHT22;36703;48.154;17.126;2023-02-01T05:24:19;9.20;49.40
50738;DHT22;36703;48.154;17.126;2023-02-01T05:28:21;9.20;49.40
50738;DHT22;36703;48.154;17.126;2023-02-01T05:32:23;9.20;49.40
50738;DHT22;36703;48.154;17.126;2023-02-01T05:36:24;9.20;49.50
50738;DHT22;36703;48.154;17.126;2023-02-01T05:40:26;9.10;49.50
50738;DHT22;36703;48.154;17.126;2023-02-01T05:44:27;9.10;49.60
50738;DHT22;36703;48.154;17.126;2023-02-01T05:48:29;9.10;49.70
50738;DHT22;36703;48.154;17.126;2023-02-01T05:52:30;9.10;49.80
50738;DHT22;36703;48.154;17.126;2023-02-01T05:56:32;9.10;49.90
50738;DHT22;36703;48.154;17.126;2023-02-01T06:00:33;9.10;50.00
50738;DHT22;36703;48.154;17.126;2023-02-01T06:04:35;8.60;49.80
50738;DHT22;36703;48.154;17.126;2023-02-01T06:08:36;9.00;50.20
50738;DHT22;36703;48.154;17.126;2023-02-01T06:12:41;9.00;50.20
50738;DHT22;36703;48.154;17.126;2023-02-01T06:16:42;9.00;50.40
50738;DHT22;36703;48.154;17.126;2023-02-01T06:20:53;9.00;50.50
50738;DHT22;36703;48.154;17.126;2023-02-01T06:24:55;9.00;50.70
50738;DHT22;36703;48.154;17.126;2023-02-01T06:28:57;9.10;50.80
50738;DHT22;36703;48.154;17.126;2023-02-01T06:32:58;9.10;50.80
50738;DHT22;36703;48.154;17.126;2023-02-01T06:37:00;9.10;50.90
50738;DHT22;36703;48.154;17.126;2023-02-01T06:41:02;9.10;50.90
50738;DHT22;36703;48.154;17.126;2023-02-01T06:45:04;9.10;50.90
50738;DHT22;36703;48.154;17.126;2023-02-01T06:49:08;9.10;51.00
50738;DHT22;36703;48.154;17.126;2023-02-01T06:53:09;9.10;51.10
50738;DHT22;36703;48.154;17.126;2023-02-01T06:57:11;9.10;51.20
50738;DHT22;36703;48.154;17.126;2023-02-01T07:01:13;9.10;51.30
50738;DHT22;36703;48.154;17.126;2023-02-01T07:05:15;9.10;51.50
50738;DHT22;36703;48.154;17.126;2023-02-01T07:09:16;9.20;51.60
50738;DHT22;36703;48.154;17.126;2023-02-01T07:13:18;9.20;51.70
50738;DHT22;36703;48.154;17.126;2023-02-01T07:17:20;9.20;51.70
50738;DHT22;36703;48.154;17.126;2023-02-01T07:21:21;9.30;51.70
50738;DHT22;36703;48.154;17.126;2023-02-01T07:25:23;9.30;51.80
50738;DHT22;36703;48.154;17.126;2023-02-01T07:29:25;9.30;51.70
50738;DHT22;36703;48.154;17.126;2023-02-01T07:33:27;9.30;51.90
50738;DHT22;36703;48.154;17.126;2023-02-01T07:37:29;9.40;52.00
50738;DHT22;36703;48.154;17.126;2023-02-01T07:41:31;9.40;51.90
50738;DHT22;36703;48.154;17.126;2023-02-01T07:45:32;9.50;51.90
50738;DHT22;36703;48.154;17.126;2023-02-01T07:49:35;9.50;52.00
50738;DHT22;36703;48.154;17.126;2023-02-01T07:53:36;9.60;52.50
50738;DHT22;36703;48.154;17.126;2023-02-01T07:57:38;9.70;52.00
50738;DHT22;36703;48.154;17.126;2023-02-01T08:01:40;9.80;51.90
50738;DHT22;36703;48.154;17.126;2023-02-01T08:05:41;9.90;51.80
50738;DHT22;36703;48.154;17.126;2023-02-01T08:09:43;9.90;51.60
50738;DHT22;36703;48.154;17.126;2023-02-01T08:13:44;10.00;51.70
50738;DHT22;36703;48.154;17.126;2023-02-01T08:17:50;10.10;51.70
50738;DHT22;36703;48.154;17.126;2023-02-01T08:21:52;10.20;51.50
50738;DHT22;36703;48.154;17.126;2023-02-01T08:25:53;10.40;51.40
50738;DHT22;36703;48.154;17.126;2023-02-01T08:29:54;10.60;51.20
50738;DHT22;36703;48.154;17.126;2023-02-01T08:33:58;10.70;51.00
50738;DHT22;36703;48.154;17.126;2023-02-01T08:38:02;10.80;50.80
50738;DHT22;36703;48.154;17.126;2023-02-01T08:42:03;11.00;50.50
50738;DHT22;36703;48.154;17.126;2023-02-01T08:46:24;11.20;50.20
50738;DHT22;36703;48.154;17.126;2023-02-01T08:50:25;11.30;49.80
50738;DHT22;36703;48.154;17.126;2023-02-01T08:54:27;11.30;49.50
50738;DHT22;36703;48.154;17.126;2023-02-01T08:58:28;11.40;49.30
50738;DHT22;36703;48.154;17.126;2023-02-01T09:02:30;11.60;49.00
50738;DHT22;36703;48.154;17.126;2023-02-01T09:06:32;11.80;48.90
50738;DHT22;36703;48.154;17.126;2023-02-01T09:10:34;12.00;49.90
50738;DHT22;36703;48.154;17.126;2023-02-01T09:14:37;12.20;56.80
50738;DHT22;36703;48.154;17.126;2023-02-01T09:18:39;12.40;52.40
50738;DHT22;36703;48.154;17.126;2023-02-01T09:22:41;12.50;54.30
50738;DHT22;36703;48.154;17.126;2023-02-01T09:26:42;12.60;49.00
50738;DHT22;36703;48.154;17.126;2023-02-01T09:30:45;12.60;48.10
50738;DHT22;36703;48.154;17.126;2023-02-01T09:34:46;12.50;48.30
50738;DHT22;36703;48.154;17.126;2023-02-01T09:38:48;12.70;48.30
50738;DHT22;36703;48.154;17.126;2023-02-01T09:47:22;12.20;48.20
50738;DHT22;36703;48.154;17.126;2023-02-01T09:51:36;12.10;48.30
50738;DHT22;36703;48.154;17.126;2023-02-01T09:55:45;12.10;48.50
50738;DHT22;36703;48.154;17.126;2023-02-01T10:00:00;12.00;48.40
50738;DHT22;36703;48.154;17.126;2023-02-01T10:04:14;11.90;48.20
50738;DHT22;36703;48.154;17.126;2023-02-01T10:13:11;11.70;48.30
50738;DHT22;36703;48.154;17.126;2023-02-01T10:22:14;11.50;48.50
50738;DHT22;36703;48.154;17.126;2023-02-01T10:26:33;11.40;48.70
50738;DHT22;36703;48.154;17.126;2023-02-01T10:30:44;11.40;49.20
50738;DHT22;36703;48.154;17.126;2023-02-01T10:35:04;11.40;49.50
50738;DHT22;36703;48.154;17.126;2023-02-01T10:39:14;11.40;49.70
50738;DHT22;36703;48.154;17.126;2023-02-01T10:43:16;11.20;49.80
50738;DHT22;36703;48.154;17.126;2023-02-01T10:47:17;11.10;50.30
50738;DHT22;36703;48.154;17.126;2023-02-01T10:51:29;11.00;50.60
50738;DHT22;36703;48.154;17.126;2023-02-01T10:55:47;11.00;50.80
50738;DHT22;36703;48.154;17.126;2023-02-01T10:59:52;11.00;51.00
50738;DHT22;36703;48.154;17.126;2023-02-01T11:03:59;10.90;51.30
50738;DHT22;36703;48.154;17.126;2023-02-01T11:08:02;10.90;51.50
50738;DHT22;36703;48.154;17.126;2023-02-01T11:12:04;11.10;51.60
50738;DHT22;36703;48.154;17.126;2023-02-01T11:16:08;11.30;51.40
50738;DHT22;36703;48.154;17.126;2023-02-01T11:20:18;11.50;50.70
50738;DHT22;36703;48.154;17.126;2023-02-01T11:24:45;11.40;50.70
50738;DHT22;36703;48.154;17.126;2023-02-01T11:29:02;11.50;50.70
50738;DHT22;36703;48.154;17.126;2023-02-01T11:33:05;11.60;50.40
50738;DHT22;36703;48.154;17.126;2023-02-01T11:37:23;11.50;50.30
50738;DHT22;36703;48.154;17.126;2023-02-01T11:41:27;11.70;50.30
50738;DHT22;36703;48.154;17.126;2023-02-01T11:45:30;12.20;49.70
50738;DHT22;36703;48.154;17.126;2023-02-01T11:49:34;12.30;48.80
50738;DHT22;36703;48.154;17.126;2023-02-01T12:12:46;11.50;49.50
50738;DHT22;36703;48.154;17.126;2023-02-01T12:26:22;11.30;50.20
50738;DHT22;36703;48.154;17.126;2023-02-01T12:30:42;11.30;50.50
50738;DHT22;36703;48.154;17.126;2023-02-01T12:44:55;11.60;50.50
50738;DHT22;36703;48.154;17.126;2023-02-01T12:48:48;11.40;50.40
50738;DHT22;36703;48.154;17.126;2023-02-01T12:53:19;11.20;51.00
50738;DHT22;36703;48.154;17.126;2023-02-01T12:57:31;11.00;51.50
50738;DHT22;36703;48.154;17.126;2023-02-01T13:01:41;10.90;51.90
50738;DHT22;36703;48.154;17.126;2023-02-01T13:06:10;10.90;52.00
50738;DHT22;36703;48.154;17.126;2023-02-01T13:10:32;10.80;52.20
50738;DHT22;36703;48.154;17.126;2023-02-01T13:14:48;10.80;52.30
50738;DHT22;36703;48.154;17.126;2023-02-01T13:19:28;10.90;52.40
50738;DHT22;36703;48.154;17.126;2023-02-01T13:23:35;10.80;52.30
50738;DHT22;36703;48.154;17.126;2023-02-01T13:27:39;10.80;52.30
50738;DHT22;36703;48.154;17.126;2023-02-01T13:41:03;10.60;52.60
50738;DHT22;36703;48.154;17.126;2023-02-01T13:45:26;10.50;52.80
50738;DHT22;36703;48.154;17.126;2023-02-01T13:49:33;10.40;52.80
50738;DHT22;36703;48.154;17.126;2023-02-01T13:53:47;10.50;52.90
50738;DHT22;36703;48.154;17.126;2023-02-01T13:57:52;10.60;53.00
50738;DHT22;36703;48.154;17.126;2023-02-01T14:02:45;10.80;52.80
50738;DHT22;36703;48.154;17.126;2023-02-01T14:06:53;11.30;52.80
50738;DHT22;36703;48.154;17.126;2023-02-01T14:10:59;11.80;51.80
50738;DHT22;36703;48.154;17.126;2023-02-01T14:15:23;11.70;51.50
50738;DHT22;36703;48.154;17.126;2023-02-01T14:19:32;11.60;51.70
50738;DHT22;36703;48.154;17.126;2023-02-01T14:23:40;11.50;51.60
50738;DHT22;36703;48.154;17.126;2023-02-01T14:27:49;11.40;51.60
50738;DHT22;36703;48.154;17.126;2023-02-01T14:32:04;11.30;51.90
50738;DHT22;36703;48.154;17.126;2023-02-01T14:36:20;11.20;52.40
50738;DHT22;36703;48.154;17.126;2023-02-01T14:40:27;11.20;51.90
50738;DHT22;36703;48.154;17.126;2023-02-01T14:44:32;11.20;51.90
50738;DHT22;36703;48.154;17.126;2023-02-01T14:52:43;11.50;51.90
50738;DHT22;36703;48.154;17.126;2023-02-01T14:56:54;11.70;51.50
50738;DHT22;36703;48.154;17.126;2023-02-01T15:00:58;11.80;51.10
50738;DHT22;36703;48.154;17.126;2023-02-01T15:05:31;11.90;50.90
50738;DHT22;36703;48.154;17.126;2023-02-01T15:09:36;11.90;50.80
50738;DHT22;36703;48.154;17.126;2023-02-01T15:13:39;12.20;50.70
50738;DHT22;36703;48.154;17.126;2023-02-01T15:17:41;11.80;50.40
50738;DHT22;36703;48.154;17.126;2023-02-01T15:21:45;11.90;50.30
50738;DHT22;36703;48.154;17.126;2023-02-01T15:25:48;11.80;49.80
50738;DHT22;36703;48.154;17.126;2023-02-01T15:29:50;11.70;49.50
50738;DHT22;36703;48.154;17.126;2023-02-01T15:33:58;11.60;49.40
50738;DHT22;36703;48.154;17.126;2023-02-01T15:38:39;11.60;49.20
50738;DHT22;36703;48.154;17.126;2023-02-01T15:42:53;11.50;49.20
50738;DHT22;36703;48.154;17.126;2023-02-01T15:46:56;11.40;49.30
50738;DHT22;36703;48.154;17.126;2023-02-01T15:50:59;11.30;48.70
50738;DHT22;36703;48.154;17.126;2023-02-01T15:55:08;11.40;48.60
50738;DHT22;36703;48.154;17.126;2023-02-01T15:59:44;11.30;48.70
50738;DHT22;36703;48.154;17.126;2023-02-01T16:03:46;11.30;48.60
50738;DHT22;36703;48.154;17.126;2023-02-01T16:08:30;11.20;48.70
50738;DHT22;36703;48.154;17.126;2023-02-01T16:12:32;11.10;48.90
50738;DHT22;36703;48.154;17.126;2023-02-01T16:16:39;11.00;48.90
50738;DHT22;36703;48.154;17.126;2023-02-01T16:20:41;11.40;49.20
50738;DHT22;36703;48.154;17.126;2023-02-01T16:24:43;11.00;49.10
50738;DHT22;36703;48.154;17.126;2023-02-01T16:28:45;10.90;49.10
50738;DHT22;36703;48.154;17.126;2023-02-01T16:32:47;11.20;49.20
50738;DHT22;36703;48.154;17.126;2023-02-01T16:36:49;10.80;49.10
50738;DHT22;36703;48.154;17.126;2023-02-01T16:40:56;10.80;49.20
50738;DHT22;36703;48.154;17.126;2023-02-01T16:44:59;10.80;49.10
50738;DHT22;36703;48.154;17.126;2023-02-01T16:49:01;10.80;49.20
50738;DHT22;36703;48.154;17.126;2023-02-01T16:53:03;10.70;49.10
50738;DHT22;36703;48.154;17.126;2023-02-01T16:57:05;10.70;49.10
50738;DHT22;36703;48.154;17.126;2023-02-01T17:01:13;10.60;49.00
50738;DHT22;36703;48.154;17.126;2023-02-01T17:05:16;10.60;49.00
50738;DHT22;36703;48.154;17.126;2023-02-01T17:09:18;10.70;49.00
50738;DHT22;36703;48.154;17.126;2023-02-01T17:13:19;10.60;48.90
50738;DHT22;36703;48.154;17.126;2023-02-01T17:17:21;10.60;48.90
50738;DHT22;36703;48.154;17.126;2023-02-01T17:21:24;10.50;48.90
50738;DHT22;36703;48.154;17.126;2023-02-01T17:25:30;10.40;49.00
50738;DHT22;36703;48.154;17.126;2023-02-01T17:29:32;10.30;49.00
50738;DHT22;36703;48.154;17.126;2023-02-01T17:33:35;10.30;48.90
50738;DHT22;36703;48.154;17.126;2023-02-01T17:37:37;10.30;49.00
50738;DHT22;36703;48.154;17.126;2023-02-01T17:41:38;10.40;49.00
50738;DHT22;36703;48.154;17.126;2023-02-01T17:45:57;10.30;49.00
50738;DHT22;36703;48.154;17.126;2023-02-01T17:50:01;10.40;48.90
50738;DHT22;36703;48.154;17.126;2023-02-01T17:54:03;10.30;48.90
50738;DHT22;36703;48.154;17.126;2023-02-01T17:58:04;10.30;49.00
50738;DHT22;36703;48.154;17.126;2023-02-01T18:02:17;10.30;49.50
50738;DHT22;36703;48.154;17.126;2023-02-01T18:06:24;10.30;49.10
50738;DHT22;36703;48.154;17.126;2023-02-01T18:10:31;10.30;49.20
50738;DHT22;36703;48.154;17.126;2023-02-01T18:14:32;10.30;49.40
50738;DHT22;36703;48.154;17.126;2023-02-01T18:18:34;10.30;49.50
50738;DHT22;36703;48.154;17.126;2023-02-01T18:22:35;10.40;49.60
50738;DHT22;36703;48.154;17.126;2023-02-01T18:26:37;10.30;49.80
50738;DHT22;36703;48.154;17.126;2023-02-01T18:30:38;10.20;49.90
50738;DHT22;36703;48.154;17.126;2023-02-01T18:34:40;10.30;50.10
50738;DHT22;36703;48.154;17.126;2023-02-01T18:38:41;10.20;50.20
50738;DHT22;36703;48.154;17.126;2023-02-01T18:42:43;10.20;50.40
50738;DHT22;36703;48.154;17.126;2023-02-01T18:46:45;10.20;50.50
50738;DHT22;36703;48.154;17.126;2023-02-01T18:50:46;10.20;50.70
50738;DHT22;36703;48.154;17.126;2023-02-01T18:54:48;10.20;50.80
50738;DHT22;36703;48.154;17.126;2023-02-01T18:58:50;10.20;51.00
50738;DHT22;36703;48.154;17.126;2023-02-01T19:02:51;10.10;51.10
50738;DHT22;36703;48.154;17.126;2023-02-01T19:06:53;10.10;51.40
50738;DHT22;36703;48.154;17.126;2023-02-01T19:10:55;10.00;52.00
50738;DHT22;36703;48.154;17.126;2023-02-01T19:14:56;10.00;52.40
50738;DHT22;36703;48.154;17.126;2023-02-01T19:18:58;9.90;52.70
50738;DHT22;36703;48.154;17.126;2023-02-01T19:22:59;9.90;52.90
50738;DHT22;36703;48.154;17.126;2023-02-01T19:27:01;9.80;53.10
50738;DHT22;36703;48.154;17.126;2023-02-01T19:31:03;9.80;53.30
50738;DHT22;36703;48.154;17.126;2023-02-01T19:35:07;9.80;53.40
50738;DHT22;36703;48.154;17.126;2023-02-01T19:39:11;9.80;53.60
50738;DHT22;36703;48.154;17.126;2023-02-01T19:43:12;9.80;53.80
50738;DHT22;36703;48.154;17.126;2023-02-01T19:47:14;9.80;53.90
50738;DHT22;36703;48.154;17.126;2023-02-01T19:51:16;9.80;54.00
50738;DHT22;36703;48.154;17.126;2023-02-01T19:55:17;9.80;54.20
50738;DHT22;36703;48.154;17.126;2023-02-01T19:59:19;9.70;54.40
50738;DHT22;36703;48.154;17.126;2023-02-01T20:03:21;9.70;54.40
50738;DHT22;36703;48.154;17.126;2023-02-01T20:07:23;9.70;54.40
50738;DHT22;36703;48.154;17.126;2023-02-01T20:11:25;9.70;54.50
50738;DHT22;36703;48.154;17.126;2023-02-01T20:15:27;9.60;54.50
50738;DHT22;36703;48.154;17.126;2023-02-01T20:19:29;9.60;54.50
50738;DHT22;36703;48.154;17.126;2023-02-01T20:23:31;9.60;54.50
50738;DHT22;36703;48.154;17.126;2023-02-01T20:27:32;9.70;54.60
50738;DHT22;36703;48.154;17.126;2023-02-01T20:31:34;9.60;54.50
50738;DHT22;36703;48.154;17.126;2023-02-01T20:35:36;9.60;54.50
50738;DHT22;36703;48.154;17.126;2023-02-01T20:39:37;9.60;54.40
50738;DHT22;36703;48.154;17.126;2023-02-01T20:43:38;9.60;54.30
50738;DHT22;36703;48.154;17.126;2023-02-01T20:47:40;9.60;54.20
50738;DHT22;36703;48.154;17.126;2023-02-01T20:51:43;9.50;54.10
50738;DHT22;36703;48.154;17.126;2023-02-01T20:55:45;9.60;54.00
50738;DHT22;36703;48.154;17.126;2023-02-01T20:59:46;9.60;53.90
50738;DHT22;36703;48.154;17.126;2023-02-01T21:03:49;9.60;53.70
50738;DHT22;36703;48.154;17.126;2023-02-01T21:07:50;9.60;53.60
50738;DHT22;36703;48.154;17.126;2023-02-01T21:11:52;9.70;53.50
50738;DHT22;36703;48.154;17.126;2023-02-01T21:15:54;9.70;53.20
50738;DHT22;36703;48.154;17.126;2023-02-01T21:19:55;9.70;53.00
50738;DHT22;36703;48.154;17.126;2023-02-01T21:23:58;9.60;52.80
50738;DHT22;36703;48.154;17.126;2023-02-01T21:28:00;9.60;52.60
50738;DHT22;36703;48.154;17.126;2023-02-01T21:32:02;9.70;52.60
50738;DHT22;36703;48.154;17.126;2023-02-01T21:36:04;9.70;52.40
50738;DHT22;36703;48.154;17.126;2023-02-01T21:40:07;9.70;52.20
50738;DHT22;36703;48.154;17.126;2023-02-01T21:44:09;9.70;52.10
50738;DHT22;36703;48.154;17.126;2023-02-01T21:48:14;9.80;52.10
50738;DHT22;36703;48.154;17.126;2023-02-01T21:52:16;9.80;52.00
50738;DHT22;36703;48.154;17.126;2023-02-01T21:56:17;9.80;51.60
50738;DHT22;36703;48.154;17.126;2023-02-01T22:00:19;9.70;51.50
50738;DHT22;36703;48.154;17.126;2023-02-01T22:04:21;9.80;51.60
50738;DHT22;36703;48.154;17.126;2023-02-01T22:08:22;9.80;51.50
50738;DHT22;36703;48.154;17.126;2023-02-01T22:12:24;9.80;51.40
50738;DHT22;36703;48.154;17.126;2023-02-01T22:16:25;9.80;51.10
50738;DHT22;36703;48.154;17.126;2023-02-01T22:20:27;9.80;50.90
50738;DHT22;36703;48.154;17.126;2023-02-01T22:24:29;9.80;50.80
50738;DHT22;36703;48.154;17.126;2023-02-01T22:28:30;9.80;50.40
50738;DHT22;36703;48.154;17.126;2023-02-01T22:32:32;9.80;50.40
50738;DHT22;36703;48.154;17.126;2023-02-01T22:36:33;9.90;50.30
50738;DHT22;36703;48.154;17.126;2023-02-01T22:40:35;9.90;50.10
50738;DHT22;36703;48.154;17.126;2023-02-01T22:44:36;9.90;49.80
50738;DHT22;36703;48.154;17.126;2023-02-01T22:48:38;10.00;49.80
50738;DHT22;36703;48.154;17.126;2023-02-01T22:52:41;10.00;49.60
50738;DHT22;36703;48.154;17.126;2023-02-01T22:56:42;10.00;49.60
50738;DHT22;36703;48.154;17.126;2023-02-01T23:00:44;10.10;49.90
50738;DHT22;36703;48.154;17.126;2023-02-01T23:04:46;9.70;50.60
50738;DHT22;36703;48.154;17.126;2023-02-01T23:08:47;9.40;54.00
50738;DHT22;36703;48.154;17.126;2023-02-01T23:12:49;9.10;64.60
50738;DHT22;36703;48.154;17.126;2023-02-01T23:16:51;9.00;65.70
50738;DHT22;36703;48.154;17.126;2023-02-01T23:20:52;8.90;66.30
50738;DHT22;36703;48.154;17.126;2023-02-01T23:24:54;8.70;74.50
50738;DHT22;36703;48.154;17.126;2023-02-01T23:28:56;8.60;78.00
50738;DHT22;36703;48.154;17.126;2023-02-01T23:32:58;8.70;77.60
50738;DHT22;36703;48.154;17.126;2023-02-01T23:36:59;8.60;77.30
50738;DHT22;36703;48.154;17.126;2023-02-01T23:41:04;8.50;72.80
50738;DHT22;36703;48.154;17.126;2023-02-01T23:45:07;8.50;72.40
50738;DHT22;36703;48.154;17.126;2023-02-01T23:49:09;8.50;72.20
50738;DHT22;36703;48.154;17.126;2023-02-01T23:53:10;8.60;72.20
50738;DHT22;36703;48.154;17.126;2023-02-01T23:57:12;8.60;72.10
